Hustontown, Pennsylvania
Current Conditions -  °F | °C
As of 10:53 AM on Thursday 23 Oct 2014 (Local Time) from KAOO Reporting Station
Overcast Overcast  
Wind Chill: 51°   Ceiling: 2700
Heat Index: 51°   Visibility: 10mi
Dew Point: 42°   Wind: 8mph
Humidity: 71%   Direction: 350°N
Pressure: 30.01"   Gusts: NA
Location:  40.05°N, 78.03°W
Report Text: KAOO 231453Z AUTO 35007KT 10SM BKN027 OVC034 11/06 A3001 RMK AO2 SLP167 T01060056 58002
Loading
Personal Weather Stations






























Interactive Weather Map New forecast layout! Learn more

10-Day Weather Forecast

Advertisements
Track Severe Weather on mobile